createdAt,value
2023-01-07T00:02:14.087Z,10.91
2023-01-07T00:04:43.443Z,10.97
2023-01-07T00:07:12.586Z,10.64
2023-01-07T00:09:44.489Z,10.71
2023-01-07T00:12:15.995Z,10.81
2023-01-07T00:14:47.684Z,10.64
2023-01-07T00:17:20.469Z,10.62
2023-01-07T00:19:57.844Z,10.56
2023-01-07T00:22:29.294Z,10.60
2023-01-07T00:25:06.934Z,10.64
2023-01-07T00:27:35.578Z,10.55
2023-01-07T00:30:05.418Z,10.59
2023-01-07T00:32:54.734Z,10.55
2023-01-07T00:35:24.337Z,10.49
2023-01-07T00:38:01.477Z,10.53
2023-01-07T00:40:32.111Z,10.38
2023-01-07T00:43:11.719Z,10.43
2023-01-07T00:45:44.763Z,10.50
2023-01-07T00:48:18.210Z,10.36
2023-01-07T00:50:49.657Z,10.39
2023-01-07T00:53:21.291Z,10.36
2023-01-07T00:55:52.025Z,10.13
2023-01-07T00:58:34.848Z,10.04
2023-01-07T01:01:05.084Z,9.96
2023-01-07T01:03:36.609Z,9.92
2023-01-07T01:06:10.188Z,9.92
2023-01-07T01:08:41.298Z,10.05
2023-01-07T01:11:20.955Z,9.95
2023-01-07T01:13:50.399Z,9.95
2023-01-07T01:16:36.923Z,9.86
2023-01-07T01:19:13.176Z,9.92
2023-01-07T01:21:44.364Z,9.77
2023-01-07T01:24:22.973Z,9.77
2023-01-07T01:26:54.285Z,9.89
2023-01-07T01:29:26.580Z,9.92
2023-01-07T01:31:55.672Z,9.79
2023-01-07T01:34:30.698Z,9.83
2023-01-07T01:37:07.232Z,9.88
2023-01-07T01:39:36.150Z,9.86
2023-01-07T01:42:06.321Z,9.92
2023-01-07T01:44:41.520Z,9.91
2023-01-07T01:47:24.015Z,9.96
2023-01-07T01:50:00.984Z,9.88
2023-01-07T01:52:48.463Z,9.96
2023-01-07T01:55:24.119Z,10.09
2023-01-07T01:57:59.325Z,10.01
2023-01-07T02:00:30.334Z,10.17
2023-01-07T02:03:07.989Z,10.17
2023-01-07T02:05:44.273Z,10.37
2023-01-07T02:08:15.285Z,10.48
2023-01-07T02:10:44.023Z,10.47
2023-01-07T02:13:30.570Z,10.55
2023-01-07T02:16:05.848Z,10.54
2023-01-07T02:18:50.594Z,10.54
2023-01-07T02:21:34.032Z,10.47
2023-01-07T02:24:30.264Z,10.45
2023-01-07T02:27:22.360Z,10.49
2023-01-07T02:30:28.163Z,10.47
2023-01-07T02:33:36.559Z,10.52
2023-01-07T02:36:44.565Z,10.56
2023-01-07T02:39:47.030Z,10.62
2023-01-07T02:42:35.363Z,10.55
2023-01-07T02:45:10.158Z,10.51
2023-01-07T02:47:47.519Z,10.57
2023-01-07T02:50:17.076Z,10.56
2023-01-07T02:53:03.927Z,10.51
2023-01-07T02:55:41.737Z,10.64
2023-01-07T02:58:23.749Z,10.73
2023-01-07T03:01:39.020Z,10.47
2023-01-07T03:04:38.424Z,10.55
2023-01-07T03:07:26.159Z,10.56
2023-01-07T03:10:03.132Z,10.50
2023-01-07T03:12:38.356Z,10.49
2023-01-07T03:15:15.547Z,10.55
2023-01-07T03:17:47.605Z,10.56
2023-01-07T03:20:17.796Z,10.60
2023-01-07T03:22:48.228Z,10.61
2023-01-07T03:25:23.410Z,10.64
2023-01-07T03:27:56.303Z,10.59
2023-01-07T03:30:27.051Z,10.66
2023-01-07T03:33:08.868Z,10.79
2023-01-07T03:35:39.680Z,10.90
2023-01-07T03:38:13.401Z,10.75
2023-01-07T03:40:46.091Z,10.65
2023-01-07T03:43:20.046Z,10.70
2023-01-07T03:45:51.349Z,10.79
2023-01-07T03:48:25.442Z,10.65
2023-01-07T03:50:57.654Z,10.57
2023-01-07T03:53:27.039Z,10.64
2023-01-07T03:55:59.691Z,10.57
2023-01-07T03:58:29.205Z,10.81
2023-01-07T04:01:01.198Z,10.61
2023-01-07T04:03:33.749Z,10.59
2023-01-07T04:06:03.062Z,10.54
2023-01-07T04:08:37.165Z,10.59
2023-01-07T04:11:09.956Z,10.61
2023-01-07T04:13:50.675Z,10.53
2023-01-07T04:16:20.341Z,10.64
2023-01-07T04:18:50.717Z,10.52
2023-01-07T04:21:30.172Z,10.49
2023-01-07T04:23:59.907Z,10.51
2023-01-07T04:26:36.052Z,10.64
2023-01-07T04:29:08.033Z,10.69
2023-01-07T04:31:36.869Z,10.62
2023-01-07T04:34:07.957Z,10.71
2023-01-07T04:36:44.361Z,10.63
2023-01-07T04:39:14.239Z,10.70
2023-01-07T04:41:51.673Z,10.57
2023-01-07T04:44:30.390Z,10.63
2023-01-07T04:47:01.174Z,10.49
2023-01-07T04:49:32.978Z,10.58
2023-01-07T04:52:02.182Z,10.58
2023-01-07T04:54:33.983Z,10.40
2023-01-07T04:57:09.377Z,10.32
2023-01-07T04:59:41.201Z,10.45
2023-01-07T05:02:10.027Z,10.40
2023-01-07T05:04:43.000Z,10.35
2023-01-07T05:07:13.075Z,10.42
2023-01-07T05:09:50.202Z,10.40
2023-01-07T05:12:26.421Z,10.38
2023-01-07T05:15:04.454Z,10.48
2023-01-07T05:17:38.680Z,10.36
2023-01-07T05:20:12.050Z,10.43
2023-01-07T05:22:41.956Z,10.34
2023-01-07T05:25:19.779Z,10.33
2023-01-07T05:28:00.635Z,10.38
2023-01-07T05:30:41.626Z,10.46
2023-01-07T05:33:12.566Z,10.47
2023-01-07T05:35:41.213Z,10.50
2023-01-07T05:38:10.351Z,10.36
2023-01-07T05:40:42.259Z,10.46
2023-01-07T05:43:16.024Z,10.61
2023-01-07T05:45:46.802Z,10.55
2023-01-07T05:48:16.568Z,10.45
2023-01-07T05:50:48.748Z,10.40
2023-01-07T05:53:19.751Z,10.47
2023-01-07T05:55:53.739Z,10.41
2023-01-07T05:58:28.385Z,10.39
2023-01-07T06:01:06.013Z,10.45
2023-01-07T06:03:35.892Z,10.38
2023-01-07T06:06:07.507Z,10.44
2023-01-07T06:08:37.741Z,10.32
2023-01-07T06:11:12.971Z,10.27
2023-01-07T06:13:43.715Z,10.33
2023-01-07T06:16:14.722Z,10.35
2023-01-07T06:18:43.478Z,10.39
2023-01-07T06:21:12.690Z,10.41
2023-01-07T06:23:43.528Z,10.33
2023-01-07T06:26:17.801Z,10.27
2023-01-07T06:28:54.643Z,10.27
2023-01-07T06:31:25.774Z,10.22
2023-01-07T06:33:54.282Z,10.28
2023-01-07T06:36:30.351Z,10.16
2023-01-07T06:39:02.996Z,10.14
2023-01-07T06:41:34.780Z,10.16
2023-01-07T06:44:13.707Z,10.15
2023-01-07T06:46:44.583Z,10.15
2023-01-07T06:49:16.125Z,10.16
2023-01-07T06:51:48.156Z,10.13
2023-01-07T06:54:24.143Z,10.15
2023-01-07T06:56:56.755Z,10.40
2023-01-07T06:59:39.763Z,10.22
2023-01-07T07:02:19.718Z,10.21
2023-01-07T07:04:50.762Z,10.18
2023-01-07T07:07:20.529Z,10.05
2023-01-07T07:09:50.907Z,10.12
2023-01-07T07:12:21.870Z,10.09
2023-01-07T07:14:56.559Z,10.00
2023-01-07T07:17:26.535Z,10.16
2023-01-07T07:19:55.080Z,10.03
2023-01-07T07:22:33.324Z,10.10
2023-01-07T07:25:04.844Z,10.04
2023-01-07T07:27:34.058Z,9.89
2023-01-07T07:30:11.312Z,9.99
2023-01-07T07:32:40.603Z,9.97
2023-01-07T07:35:10.070Z,10.06
2023-01-07T07:37:39.601Z,9.90
2023-01-07T07:40:10.246Z,10.02
2023-01-07T07:43:09.419Z,9.92
2023-01-07T07:45:33.486Z,9.95
2023-01-07T07:48:05.607Z,9.92
2023-01-07T07:50:36.935Z,9.90
2023-01-07T07:53:10.607Z,10.00
2023-01-07T07:55:42.297Z,9.93
2023-01-07T07:58:11.755Z,9.79
2023-01-07T08:00:42.647Z,9.85
2023-01-07T08:03:11.745Z,10.02
2023-01-07T08:05:50.296Z,9.85
2023-01-07T08:08:24.884Z,9.89
2023-01-07T08:10:56.382Z,9.76
2023-01-07T08:13:25.917Z,9.73
2023-01-07T08:15:57.028Z,9.79
2023-01-07T08:18:27.979Z,9.62
2023-01-07T08:20:58.784Z,9.71
2023-01-07T08:23:30.351Z,9.79
2023-01-07T08:26:07.920Z,9.92
2023-01-07T08:28:37.526Z,9.96
2023-01-07T08:31:21.990Z,9.87
2023-01-07T08:33:50.484Z,9.91
2023-01-07T08:36:23.427Z,9.93
2023-01-07T08:38:55.190Z,9.90
2023-01-07T08:41:25.938Z,9.94
2023-01-07T08:43:55.326Z,9.93
2023-01-07T08:46:31.452Z,9.94
2023-01-07T08:48:59.876Z,9.82
2023-01-07T08:51:36.953Z,10.08
2023-01-07T08:54:18.766Z,10.18
2023-01-07T08:56:51.528Z,10.25
2023-01-07T08:59:27.819Z,10.33
2023-01-07T09:02:14.777Z,10.41
2023-01-07T09:04:43.937Z,10.48
2023-01-07T09:07:16.062Z,10.51
2023-01-07T09:09:44.233Z,10.68
2023-01-07T09:12:21.318Z,10.70
2023-01-07T09:14:52.817Z,10.71
2023-01-07T09:17:26.340Z,10.74
2023-01-07T09:19:56.066Z,10.77
2023-01-07T09:22:25.433Z,10.76
2023-01-07T09:24:56.375Z,10.81
2023-01-07T09:27:27.097Z,10.82
2023-01-07T09:30:01.914Z,10.95
2023-01-07T09:32:38.601Z,10.97
2023-01-07T09:35:11.123Z,11.05
2023-01-07T09:37:44.410Z,11.00
2023-01-07T09:40:24.573Z,11.04
2023-01-07T09:43:04.707Z,11.06
2023-01-07T09:45:36.136Z,11.11
2023-01-07T09:48:15.831Z,11.01
2023-01-07T09:50:51.223Z,10.91
2023-01-07T09:53:25.590Z,10.98
2023-01-07T09:56:11.244Z,11.03
2023-01-07T09:58:49.185Z,10.89
2023-01-07T10:01:27.235Z,11.11
2023-01-07T10:04:24.517Z,11.06
2023-01-07T10:06:59.123Z,11.01
2023-01-07T10:09:35.913Z,11.13
2023-01-07T10:12:19.134Z,11.11
2023-01-07T10:15:14.051Z,11.04
2023-01-07T10:18:12.441Z,11.15
2023-01-07T10:20:47.586Z,11.11
2023-01-07T10:23:28.337Z,11.16
2023-01-07T10:25:58.981Z,11.30
2023-01-07T10:28:40.085Z,11.23
2023-01-07T10:31:17.983Z,11.41
2023-01-07T10:33:49.914Z,11.53
2023-01-07T10:36:24.769Z,11.45
2023-01-07T10:39:02.177Z,11.46
2023-01-07T10:41:40.794Z,11.61
2023-01-07T10:44:40.342Z,11.52
2023-01-07T10:47:18.828Z,11.50
2023-01-07T10:50:01.285Z,11.51
2023-01-07T10:52:46.547Z,11.62
2023-01-07T10:55:40.392Z,11.49
2023-01-07T10:58:15.069Z,11.38
2023-01-07T11:00:47.172Z,11.38
2023-01-07T11:03:21.238Z,11.41
2023-01-07T11:05:55.427Z,11.38
2023-01-07T11:08:33.940Z,11.37
2023-01-07T11:11:05.414Z,11.47
2023-01-07T11:13:37.716Z,11.46
2023-01-07T11:16:11.030Z,11.41
2023-01-07T11:18:46.103Z,11.46
2023-01-07T11:21:43.080Z,11.51
2023-01-07T11:24:36.859Z,11.43
2023-01-07T11:27:12.596Z,11.59
2023-01-07T11:29:48.235Z,11.62
2023-01-07T11:32:29.685Z,11.77
2023-01-07T11:35:01.002Z,11.90
2023-01-07T11:37:41.199Z,11.89
2023-01-07T11:40:37.603Z,11.86
2023-01-07T11:43:27.264Z,11.75
2023-01-07T11:46:19.241Z,11.64
2023-01-07T11:48:58.286Z,11.69
2023-01-07T11:51:26.969Z,11.75
2023-01-07T11:53:59.546Z,11.75
2023-01-07T11:56:33.675Z,11.68
2023-01-07T11:59:24.496Z,11.69
2023-01-07T12:02:03.285Z,11.69
2023-01-07T12:04:34.292Z,11.68
2023-01-07T12:07:04.088Z,11.72
2023-01-07T12:09:41.951Z,11.90
2023-01-07T12:15:25.019Z,12.04
2023-01-07T12:18:25.334Z,11.83
2023-01-07T12:21:23.404Z,11.78
2023-01-07T12:24:00.179Z,11.83
2023-01-07T12:26:38.252Z,11.81
2023-01-07T12:29:25.975Z,11.74
2023-01-07T12:32:15.472Z,11.85
2023-01-07T12:34:51.150Z,11.97
2023-01-07T12:37:30.381Z,11.99
2023-01-07T12:40:10.942Z,11.98
2023-01-07T12:42:47.019Z,11.97
2023-01-07T12:45:24.494Z,11.91
2023-01-07T12:48:08.117Z,11.89
2023-01-07T12:50:41.044Z,11.84
2023-01-07T12:53:17.758Z,11.85
2023-01-07T12:55:49.800Z,11.78
2023-01-07T12:58:36.612Z,11.84
2023-01-07T13:01:20.421Z,11.77
2023-01-07T13:04:00.398Z,11.86
2023-01-07T13:06:43.698Z,11.84
2023-01-07T13:09:31.189Z,11.84
2023-01-07T13:12:41.855Z,11.86
2023-01-07T13:15:30.125Z,11.90
2023-01-07T13:18:19.039Z,11.92
2023-01-07T13:21:02.574Z,11.85
2023-01-07T13:23:43.191Z,11.98
2023-01-07T13:26:23.214Z,11.99
2023-01-07T13:29:18.775Z,11.99
2023-01-07T13:32:07.278Z,11.94
2023-01-07T13:34:49.379Z,11.92
2023-01-07T13:37:39.245Z,11.85
2023-01-07T13:40:31.262Z,11.84
2023-01-07T13:43:13.901Z,11.64
2023-01-07T13:45:50.703Z,11.74
2023-01-07T13:48:32.985Z,11.71
2023-01-07T13:51:08.926Z,11.71
2023-01-07T13:53:53.555Z,11.65
2023-01-07T13:56:38.594Z,11.61
2023-01-07T13:59:30.620Z,11.44
2023-01-07T14:02:24.258Z,11.50
2023-01-07T14:05:24.392Z,11.46
2023-01-07T14:08:01.629Z,11.48
2023-01-07T14:10:40.689Z,11.41
2023-01-07T14:13:26.667Z,11.41
2023-01-07T14:16:11.068Z,11.38
2023-01-07T14:19:25.475Z,11.49
2023-01-07T14:22:08.976Z,11.34
2023-01-07T14:25:16.045Z,11.27
2023-01-07T14:28:34.553Z,11.32
2023-01-07T14:31:04.081Z,11.21
2023-01-07T14:33:38.201Z,11.23
2023-01-07T14:36:08.723Z,11.19
2023-01-07T14:39:04.781Z,11.14
2023-01-07T14:41:37.015Z,11.02
2023-01-07T14:44:35.638Z,11.00
2023-01-07T14:47:06.074Z,11.05
2023-01-07T14:50:11.218Z,11.03
2023-01-07T14:53:17.330Z,11.02
2023-01-07T14:56:19.476Z,10.92
2023-01-07T14:59:06.880Z,11.09
2023-01-07T15:02:02.132Z,11.05
2023-01-07T15:05:31.029Z,10.89
2023-01-07T15:08:20.102Z,10.82
2023-01-07T15:11:13.020Z,10.82
2023-01-07T15:14:06.590Z,10.97
2023-01-07T15:16:38.045Z,10.78
2023-01-07T15:19:24.800Z,10.76
2023-01-07T15:22:05.013Z,10.70
2023-01-07T15:24:41.723Z,10.62
2023-01-07T15:27:21.276Z,10.64
2023-01-07T15:30:01.071Z,10.70
2023-01-07T15:32:41.405Z,10.51
2023-01-07T15:35:28.051Z,10.41
2023-01-07T15:37:57.269Z,10.51
2023-01-07T15:40:28.173Z,10.44
2023-01-07T15:43:03.551Z,10.44
2023-01-07T15:45:44.168Z,10.38
2023-01-07T15:48:21.078Z,10.36
2023-01-07T15:50:51.306Z,10.28
2023-01-07T15:53:23.340Z,10.13
2023-01-07T15:55:55.875Z,10.10
2023-01-07T15:58:35.928Z,10.09
2023-01-07T16:03:55.956Z,10.16
2023-01-07T16:06:45.727Z,10.10
2023-01-07T16:09:27.387Z,10.10
2023-01-07T16:11:58.094Z,10.07
2023-01-07T16:14:28.701Z,9.97
2023-01-07T16:17:21.375Z,10.07
2023-01-07T16:19:52.353Z,10.02
2023-01-07T16:22:26.244Z,9.96
2023-01-07T16:25:04.188Z,9.97
2023-01-07T16:27:35.503Z,9.86
2023-01-07T16:30:18.266Z,9.81
2023-01-07T16:32:47.169Z,9.74
2023-01-07T16:35:25.577Z,9.86
2023-01-07T16:38:00.819Z,9.72
2023-01-07T16:40:36.372Z,9.77
2023-01-07T16:43:06.876Z,9.69
2023-01-07T16:45:40.692Z,9.71
2023-01-07T16:48:19.708Z,9.62
2023-01-07T16:50:51.338Z,9.58
2023-01-07T16:53:35.201Z,9.78
2023-01-07T16:56:25.398Z,9.87
2023-01-07T16:59:08.106Z,9.63
2023-01-07T17:01:40.357Z,9.61
2023-01-07T17:04:10.965Z,9.57
2023-01-07T17:06:43.967Z,9.63
2023-01-07T17:09:22.484Z,9.61
2023-01-07T17:11:52.978Z,9.60
2023-01-07T17:14:53.765Z,9.28
2023-01-07T17:17:29.116Z,9.39
2023-01-07T17:20:22.838Z,9.43
2023-01-07T17:22:52.840Z,9.47
2023-01-07T17:25:37.613Z,9.19
2023-01-07T17:28:10.503Z,9.32
2023-01-07T17:30:42.113Z,9.35
2023-01-07T17:33:21.359Z,9.23
2023-01-07T17:35:54.690Z,9.34
2023-01-07T17:38:31.227Z,9.29
2023-01-07T17:41:40.619Z,9.13
2023-01-07T17:44:11.566Z,9.23
2023-01-07T17:46:40.142Z,9.22
2023-01-07T17:49:14.661Z,9.10
2023-01-07T17:51:54.478Z,9.05
2023-01-07T17:54:39.371Z,9.03
2023-01-07T17:57:26.501Z,9.10
2023-01-07T17:59:55.208Z,8.93
2023-01-07T18:02:28.491Z,9.06
2023-01-07T18:05:10.730Z,9.09
2023-01-07T18:07:42.730Z,8.83
2023-01-07T18:10:16.057Z,9.04
2023-01-07T18:12:49.576Z,9.14
2023-01-07T18:15:21.467Z,8.76
2023-01-07T18:17:50.078Z,8.87
2023-01-07T18:20:31.009Z,8.77
2023-01-07T18:23:05.357Z,8.84
2023-01-07T18:25:34.205Z,9.01
2023-01-07T18:28:06.595Z,8.89
2023-01-07T18:30:36.877Z,8.69
2023-01-07T18:33:07.245Z,8.68
2023-01-07T18:35:37.629Z,8.79
2023-01-07T18:38:17.656Z,8.80
2023-01-07T18:40:49.297Z,8.71
2023-01-07T18:43:32.634Z,8.65
2023-01-07T18:46:02.159Z,8.74
2023-01-07T18:48:30.793Z,8.79
2023-01-07T18:51:01.340Z,8.83
2023-01-07T18:53:32.030Z,8.87
2023-01-07T18:56:07.854Z,8.57
2023-01-07T18:58:58.555Z,8.71
2023-01-07T19:01:27.506Z,8.69
2023-01-07T19:03:57.671Z,8.75
2023-01-07T19:06:28.352Z,8.52
2023-01-07T19:09:05.970Z,8.45
2023-01-07T19:11:42.310Z,8.73
2023-01-07T19:14:24.239Z,8.60
2023-01-07T19:16:57.764Z,8.59
2023-01-07T19:19:47.955Z,8.37
2023-01-07T19:22:20.795Z,8.56
2023-01-07T19:24:52.102Z,8.25
2023-01-07T19:27:21.250Z,8.20
2023-01-07T19:30:01.381Z,8.34
2023-01-07T19:32:33.769Z,8.36
2023-01-07T19:35:02.364Z,8.41
2023-01-07T19:37:33.708Z,8.29
2023-01-07T19:40:06.109Z,8.34
2023-01-07T19:42:34.814Z,8.34
2023-01-07T19:45:12.215Z,8.17
2023-01-07T19:47:46.150Z,8.25
2023-01-07T19:50:28.877Z,8.15
2023-01-07T19:53:03.069Z,8.24
2023-01-07T19:55:35.377Z,8.24
2023-01-07T19:58:15.061Z,8.13
2023-01-07T20:01:07.556Z,8.09
2023-01-07T20:03:43.575Z,8.06
2023-01-07T20:06:26.636Z,8.29
2023-01-07T20:09:12.472Z,8.19
2023-01-07T20:11:43.799Z,8.06
2023-01-07T20:14:21.965Z,7.99
2023-01-07T20:16:57.428Z,8.03
2023-01-07T20:19:30.378Z,8.04
2023-01-07T20:22:01.711Z,8.05
2023-01-07T20:24:33.034Z,7.91
2023-01-07T20:27:16.081Z,8.02
2023-01-07T20:29:47.809Z,8.07
2023-01-07T20:32:19.788Z,8.08
2023-01-07T20:34:50.140Z,7.85
2023-01-07T20:37:22.047Z,7.75
2023-01-07T20:39:51.774Z,7.75
2023-01-07T20:42:20.276Z,7.90
2023-01-07T20:45:01.061Z,7.98
2023-01-07T20:47:36.373Z,7.78
2023-01-07T20:50:11.160Z,7.73
2023-01-07T20:52:42.833Z,7.70
2023-01-07T20:55:14.698Z,7.66
2023-01-07T20:57:45.949Z,7.71
2023-01-07T21:00:26.552Z,7.80
2023-01-07T21:02:56.602Z,7.67
2023-01-07T21:05:26.848Z,7.54
2023-01-07T21:07:57.408Z,7.72
2023-01-07T21:10:29.026Z,7.62
2023-01-07T21:13:00.561Z,7.57
2023-01-07T21:15:32.100Z,7.72
2023-01-07T21:18:02.695Z,7.50
2023-01-07T21:20:33.495Z,7.62
2023-01-07T21:23:04.423Z,7.55
2023-01-07T21:25:33.937Z,7.56
2023-01-07T21:28:03.573Z,7.59
2023-01-07T21:30:41.980Z,7.36
2023-01-07T21:33:20.453Z,7.53
2023-01-07T21:35:49.682Z,7.38
2023-01-07T21:38:25.637Z,7.39
2023-01-07T21:40:57.483Z,7.50
2023-01-07T21:43:29.481Z,7.28
2023-01-07T21:46:01.097Z,7.43
2023-01-07T21:48:39.989Z,7.31
2023-01-07T21:51:18.587Z,7.48
2023-01-07T21:53:48.685Z,7.07
2023-01-07T21:56:23.575Z,7.17
2023-01-07T21:58:52.252Z,7.12
2023-01-07T22:01:28.574Z,7.18
2023-01-07T22:04:06.787Z,6.87
2023-01-07T22:06:40.954Z,7.01
2023-01-07T22:09:18.952Z,7.15
2023-01-07T22:11:48.494Z,7.04
2023-01-07T22:14:22.786Z,7.04
2023-01-07T22:16:52.040Z,6.89
2023-01-07T22:19:28.632Z,6.84
2023-01-07T22:21:58.465Z,7.01
2023-01-07T22:24:27.523Z,6.84
2023-01-07T22:26:59.183Z,6.91
2023-01-07T22:29:27.532Z,6.88
2023-01-07T22:31:56.203Z,7.03
2023-01-07T22:34:32.778Z,7.01
2023-01-07T22:37:06.535Z,7.17
2023-01-07T22:39:40.730Z,6.93
2023-01-07T22:42:14.807Z,6.90
2023-01-07T22:44:45.756Z,6.93
2023-01-07T22:47:19.675Z,6.87
2023-01-07T22:49:59.296Z,6.89
2023-01-07T22:52:31.092Z,7.01
2023-01-07T22:55:04.127Z,6.72
2023-01-07T22:57:42.162Z,6.67
2023-01-07T23:00:17.981Z,6.79
2023-01-07T23:02:50.403Z,6.72
2023-01-07T23:05:24.168Z,6.85
2023-01-07T23:07:57.582Z,6.78
2023-01-07T23:10:28.850Z,6.85
2023-01-07T23:12:58.420Z,6.90
2023-01-07T23:15:27.618Z,6.82
2023-01-07T23:17:59.368Z,6.64
2023-01-07T23:20:36.146Z,6.76
2023-01-07T23:23:17.964Z,7.08
2023-01-07T23:25:49.768Z,7.07
2023-01-07T23:28:24.141Z,6.98
2023-01-07T23:30:54.241Z,6.87
2023-01-07T23:33:26.107Z,6.82
2023-01-07T23:36:06.228Z,6.88
2023-01-07T23:38:38.710Z,6.88
2023-01-07T23:41:13.385Z,6.78
2023-01-07T23:43:44.890Z,6.53
2023-01-07T23:46:13.494Z,6.58
2023-01-07T23:48:42.984Z,6.74
2023-01-07T23:51:20.479Z,6.53
2023-01-07T23:54:00.130Z,6.43
2023-01-07T23:56:29.461Z,6.57
2023-01-07T23:59:03.165Z,6.74
